Time;durP1;ratioP1;P1;durP2;ratioP2;P2;SDS_P1;SDS_P2;PMS_P1;PMS_P2;Temp;Humidity;BMP_temperature;BMP_pressure;BME280_temperature;BME280_humidity;BME280_pressure;Samples;Min_cycle;Max_cycle;Signal;HPM_P1;HPM_P2
2024/03/06 00:01:34;;;;;;;21.33;12.03;;;5.20;99.90;;;;;;6182835;23;20434;-64
2024/03/06 00:04:03;;;;;;;23.77;13.83;;;5.20;99.90;;;;;;6182801;23;20416;-65
2024/03/06 00:06:30;;;;;;;18.20;11.60;;;5.20;99.90;;;;;;6182849;23;20440;-65
2024/03/06 00:08:57;;;;;;;16.43;9.87;;;5.30;99.90;;;;;;6182477;23;20444;-65
2024/03/06 00:11:24;;;;;;;18.80;11.70;;;5.30;99.90;;;;;;6182552;23;20452;-64
2024/03/06 00:13:55;;;;;;;20.40;11.47;;;5.20;99.90;;;;;;6183090;23;20592;-64
2024/03/06 00:16:22;;;;;;;18.60;11.17;;;5.20;99.90;;;;;;6183579;23;20390;-64
2024/03/06 00:18:51;;;;;;;20.40;10.40;;;5.20;99.90;;;;;;6183629;23;20403;-65
2024/03/06 00:21:18;;;;;;;17.83;10.97;;;5.20;99.90;;;;;;6158056;23;20418;-65
2024/03/06 00:23:45;;;;;;;18.63;10.63;;;5.10;99.90;;;;;;6183608;23;20477;-66
2024/03/06 00:26:12;;;;;;;19.33;12.07;;;5.10;99.90;;;;;;6182880;23;20446;-65
2024/03/06 00:28:40;;;;;;;16.40;11.83;;;5.20;99.90;;;;;;6182595;23;20413;-65
2024/03/06 00:31:07;;;;;;;17.63;11.83;;;5.10;99.90;;;;;;6181719;23;20484;-65
2024/03/06 00:33:34;;;;;;;17.23;11.13;;;5.20;99.90;;;;;;6182648;23;20474;-65
2024/03/06 00:36:02;;;;;;;18.57;10.63;;;5.20;99.90;;;;;;6181959;23;20405;-65
2024/03/06 00:38:31;;;;;;;16.73;10.90;;;5.20;99.90;;;;;;6181512;23;20437;-65
2024/03/06 00:40:57;;;;;;;17.63;12.23;;;5.20;99.90;;;;;;6181593;23;20489;-65
2024/03/06 00:43:24;;;;;;;21.13;10.77;;;5.10;99.90;;;;;;6182232;23;20402;-64
2024/03/06 00:45:52;;;;;;;15.83;9.93;;;5.10;99.90;;;;;;6182430;23;20473;-66
2024/03/06 00:48:19;;;;;;;17.30;9.97;;;5.10;99.90;;;;;;6183240;23;20402;-68
2024/03/06 00:50:46;;;;;;;16.90;10.23;;;5.10;99.90;;;;;;6182726;23;20409;-65
2024/03/06 00:53:15;;;;;;;17.60;10.03;;;5.10;99.90;;;;;;6183198;23;20390;-69
2024/03/06 00:55:42;;;;;;;14.43;9.17;;;5.00;99.90;;;;;;6183371;23;20421;-64
2024/03/06 00:58:09;;;;;;;19.43;9.70;;;5.00;99.90;;;;;;6183242;23;20399;-65
2024/03/06 01:00:36;;;;;;;14.43;9.80;;;5.00;99.90;;;;;;6183825;23;20387;-66
2024/03/06 01:03:05;;;;;;;17.70;10.97;;;5.00;99.90;;;;;;6182718;23;20408;-65
2024/03/06 01:05:32;;;;;;;20.30;12.27;;;5.00;99.90;;;;;;6182879;23;20466;-65
2024/03/06 01:08:00;;;;;;;20.43;11.40;;;5.10;99.90;;;;;;6182724;23;20390;-65
2024/03/06 01:10:28;;;;;;;18.33;12.03;;;5.10;99.90;;;;;;6182354;23;20434;-65
2024/03/06 01:12:55;;;;;;;18.20;11.80;;;5.00;99.90;;;;;;6182184;23;20434;-65
2024/03/06 01:15:22;;;;;;;24.77;12.83;;;5.00;99.90;;;;;;6182271;23;20399;-65
2024/03/06 01:17:52;;;;;;;16.60;10.97;;;5.00;99.90;;;;;;6182318;23;20414;-64
2024/03/06 01:20:19;;;;;;;21.83;11.83;;;5.00;99.90;;;;;;6182901;23;20393;-64
2024/03/06 01:22:47;;;;;;;18.60;10.67;;;5.00;99.90;;;;;;6182189;23;20450;-67
2024/03/06 01:25:13;;;;;;;18.43;9.77;;;5.00;99.90;;;;;;6182350;23;20425;-67
2024/03/06 01:27:42;;;;;;;17.57;10.70;;;5.00;99.90;;;;;;6182341;23;20466;-65
2024/03/06 01:30:10;;;;;;;13.60;9.27;;;4.90;99.90;;;;;;6182508;23;20407;-65
2024/03/06 01:32:37;;;;;;;16.17;9.67;;;4.90;99.90;;;;;;6181706;23;20419;-65
2024/03/06 01:35:06;;;;;;;16.00;9.60;;;4.90;99.90;;;;;;6182223;23;20386;-64
2024/03/06 01:37:33;;;;;;;18.83;11.23;;;4.90;99.90;;;;;;6181910;23;20407;-64
2024/03/06 01:40:00;;;;;;;18.30;9.77;;;4.90;99.90;;;;;;6182064;23;20390;-65
2024/03/06 01:42:27;;;;;;;20.70;10.93;;;4.90;99.90;;;;;;6181440;23;20419;-65
2024/03/06 01:44:56;;;;;;;15.20;9.27;;;4.90;99.90;;;;;;6181484;23;20406;-65
2024/03/06 01:47:23;;;;;;;16.93;11.70;;;4.90;99.90;;;;;;6181802;23;20398;-66
2024/03/06 01:49:50;;;;;;;17.00;8.47;;;4.90;99.90;;;;;;6181724;23;20412;-64
2024/03/06 01:52:18;;;;;;;16.70;9.83;;;4.80;99.90;;;;;;6181492;23;20406;-64
2024/03/06 01:54:47;;;;;;;17.50;9.67;;;4.80;99.90;;;;;;6181530;23;20390;-64
2024/03/06 01:57:16;;;;;;;16.67;10.30;;;4.90;99.90;;;;;;6181426;23;20406;-64
2024/03/06 01:59:44;;;;;;;14.73;10.70;;;4.80;99.90;;;;;;6181272;23;20395;-65
2024/03/06 02:02:12;;;;;;;17.97;9.57;;;4.80;99.90;;;;;;6181227;23;20422;-65
2024/03/06 02:04:40;;;;;;;13.77;8.60;;;4.80;99.90;;;;;;6181511;23;20386;-65
2024/03/06 02:07:10;;;;;;;21.83;10.40;;;4.80;99.90;;;;;;6181127;23;20433;-65
2024/03/06 02:09:37;;;;;;;14.93;9.37;;;4.80;99.90;;;;;;6181303;23;20446;-65
2024/03/06 02:12:05;;;;;;;15.80;10.60;;;4.80;99.90;;;;;;6181033;23;20923;-64
2024/03/06 02:14:32;;;;;;;15.17;8.70;;;4.80;99.90;;;;;;6180869;23;20390;-64
2024/03/06 02:16:59;;;;;;;16.40;9.67;;;4.80;99.90;;;;;;6181537;23;20382;-63
2024/03/06 02:19:41;;;;;;;16.90;10.53;;;4.80;99.90;;;;;;6181010;23;20565;-65
2024/03/06 02:22:10;;;;;;;17.67;9.63;;;4.80;99.90;;;;;;6180880;23;20429;-65
2024/03/06 02:24:37;;;;;;;19.03;9.90;;;4.80;99.90;;;;;;6181258;23;20402;-66
2024/03/06 02:27:05;;;;;;;24.30;12.60;;;4.70;99.90;;;;;;6181001;23;20449;-65
2024/03/06 02:29:32;;;;;;;16.20;10.07;;;4.70;99.90;;;;;;6180670;23;20441;-64
2024/03/06 02:32:02;;;;;;;19.27;12.20;;;4.70;99.90;;;;;;6180541;23;20446;-64
2024/03/06 02:34:29;;;;;;;19.87;10.30;;;4.70;99.90;;;;;;6181215;23;20406;-65
2024/03/06 02:36:56;;;;;;;17.60;9.97;;;4.70;99.90;;;;;;6181071;23;20405;-64
2024/03/06 02:39:24;;;;;;;17.03;10.87;;;4.70;99.90;;;;;;6181037;23;20394;-64
2024/03/06 02:41:51;;;;;;;24.47;10.30;;;4.70;99.90;;;;;;6180470;23;20883;-65
2024/03/06 02:44:18;;;;;;;16.83;10.57;;;4.70;99.90;;;;;;6180676;23;20406;-66
2024/03/06 02:46:49;;;;;;;22.03;11.73;;;4.60;99.90;;;;;;6180662;23;20426;-64
2024/03/06 02:49:17;;;;;;;18.60;9.90;;;4.60;99.90;;;;;;6179910;23;20402;-64
2024/03/06 02:51:44;;;;;;;19.73;11.37;;;4.60;99.90;;;;;;6180092;23;20458;-64
2024/03/06 02:54:11;;;;;;;17.80;12.33;;;4.50;99.90;;;;;;6180002;23;20394;-65
2024/03/06 02:56:40;;;;;;;23.00;11.93;;;4.50;99.90;;;;;;6180180;23;20398;-64
2024/03/06 02:59:07;;;;;;;18.20;11.23;;;4.50;99.90;;;;;;6180526;23;20409;-64
2024/03/06 03:01:34;;;;;;;16.67;10.40;;;4.50;99.90;;;;;;6179820;23;20457;-64
2024/03/06 03:04:01;;;;;;;15.43;10.83;;;4.50;99.90;;;;;;6179774;23;20406;-65
2024/03/06 03:06:29;;;;;;;17.77;10.83;;;4.50;99.90;;;;;;6179675;23;20438;-64
2024/03/06 03:08:56;;;;;;;21.07;10.43;;;4.50;99.90;;;;;;6180399;23;20410;-65
2024/03/06 03:11:23;;;;;;;16.00;10.90;;;4.50;99.90;;;;;;6179306;23;20455;-66
2024/03/06 03:13:51;;;;;;;15.03;10.87;;;4.50;99.90;;;;;;6179377;23;20897;-64
2024/03/06 03:16:18;;;;;;;14.23;9.67;;;4.50;99.90;;;;;;6179866;23;20382;-65
2024/03/06 03:18:45;;;;;;;20.70;11.27;;;4.40;99.90;;;;;;6180642;23;20394;-65
2024/03/06 03:21:13;;;;;;;20.60;11.80;;;4.40;99.90;;;;;;6180511;23;20758;-65
2024/03/06 03:23:40;;;;;;;16.40;10.37;;;4.40;99.90;;;;;;6182223;23;20437;-64
2024/03/06 03:26:10;;;;;;;16.67;10.83;;;4.40;99.90;;;;;;6181772;23;20434;-63
2024/03/06 03:28:39;;;;;;;19.07;11.60;;;4.40;99.90;;;;;;6180846;23;20386;-65
2024/03/06 03:31:08;;;;;;;17.93;10.93;;;4.40;99.90;;;;;;6181061;23;20450;-64
2024/03/06 03:33:38;;;;;;;19.03;10.63;;;4.40;99.90;;;;;;6180552;23;20413;-64
2024/03/06 03:36:07;;;;;;;21.80;12.03;;;4.40;99.90;;;;;;6181619;23;20429;-64
2024/03/06 03:38:35;;;;;;;23.33;11.47;;;4.40;99.90;;;;;;6181550;23;20425;-64
2024/03/06 03:41:03;;;;;;;20.27;11.40;;;4.30;99.90;;;;;;6181224;23;20469;-65
2024/03/06 03:43:32;;;;;;;17.77;10.73;;;4.40;99.90;;;;;;6181451;23;20394;-64
2024/03/06 03:45:59;;;;;;;19.70;11.87;;;4.30;99.90;;;;;;6181721;23;20505;-64
2024/03/06 03:48:27;;;;;;;25.53;10.80;;;4.30;99.90;;;;;;6181676;23;20413;-64
2024/03/06 03:50:54;;;;;;;17.80;11.30;;;4.40;99.90;;;;;;6182255;23;20413;-65
2024/03/06 03:53:21;;;;;;;16.83;10.33;;;4.40;99.90;;;;;;6181057;23;20398;-64
2024/03/06 03:55:48;;;;;;;18.20;10.37;;;4.40;99.90;;;;;;6180758;23;20459;-64
2024/03/06 03:58:16;;;;;;;22.90;11.73;;;4.40;99.90;;;;;;6180728;23;20468;-64
2024/03/06 04:00:43;;;;;;;20.90;11.40;;;4.40;99.90;;;;;;6179883;23;20458;-64
2024/03/06 04:03:10;;;;;;;16.30;10.17;;;4.40;99.90;;;;;;6179941;23;20414;-64
2024/03/06 04:05:40;;;;;;;18.30;11.67;;;4.30;99.90;;;;;;6179943;23;20390;-64
2024/03/06 04:08:07;;;;;;;21.10;13.33;;;4.30;99.90;;;;;;6181821;23;20402;-65
2024/03/06 04:10:34;;;;;;;20.80;11.40;;;4.40;99.90;;;;;;6182088;23;20397;-65
2024/03/06 04:13:01;;;;;;;21.90;12.13;;;4.30;99.90;;;;;;6182843;23;20422;-65
2024/03/06 04:15:28;;;;;;;21.00;11.40;;;4.30;99.90;;;;;;6183076;23;20396;-64
2024/03/06 04:17:56;;;;;;;19.93;11.83;;;4.30;99.90;;;;;;6183058;23;20434;-65
2024/03/06 04:20:23;;;;;;;18.23;12.50;;;4.30;99.90;;;;;;6183125;23;20390;-65
2024/03/06 04:22:51;;;;;;;16.97;11.60;;;4.30;99.90;;;;;;6182921;23;20406;-64
2024/03/06 04:25:19;;;;;;;17.80;11.43;;;4.30;99.90;;;;;;6183042;23;20463;-64
2024/03/06 04:27:46;;;;;;;18.70;12.03;;;4.30;99.90;;;;;;6182998;23;20453;-65
2024/03/06 04:30:14;;;;;;;25.63;11.30;;;4.30;99.90;;;;;;6183297;23;20398;-65
2024/03/06 04:32:41;;;;;;;15.87;11.30;;;4.30;99.90;;;;;;6183015;23;20458;-64
2024/03/06 04:35:09;;;;;;;20.83;11.80;;;4.30;99.90;;;;;;6183412;23;20390;-66
2024/03/06 04:37:39;;;;;;;17.00;11.27;;;4.30;99.90;;;;;;6183421;23;20502;-64
2024/03/06 04:40:10;;;;;;;18.50;12.10;;;4.30;99.90;;;;;;6183491;23;20623;-66
2024/03/06 04:42:37;;;;;;;19.97;11.30;;;4.30;99.90;;;;;;6183064;23;20442;-65
2024/03/06 04:45:04;;;;;;;19.50;11.60;;;4.30;99.90;;;;;;6183118;23;20406;-65
2024/03/06 04:47:31;;;;;;;14.77;9.63;;;4.30;99.90;;;;;;6183264;23;20480;-65
2024/03/06 04:49:58;;;;;;;21.67;13.57;;;4.30;99.90;;;;;;6182372;23;20472;-65
2024/03/06 04:52:25;;;;;;;20.90;11.87;;;4.30;99.90;;;;;;6181688;23;20441;-64
2024/03/06 04:54:52;;;;;;;19.37;11.03;;;4.30;99.90;;;;;;6182386;23;20386;-65
2024/03/06 04:57:21;;;;;;;28.33;12.17;;;4.30;99.90;;;;;;6181520;23;20453;-64
2024/03/06 04:59:48;;;;;;;19.00;12.20;;;4.20;99.90;;;;;;6181036;23;20398;-64
2024/03/06 05:02:15;;;;;;;23.47;13.03;;;4.30;99.90;;;;;;6181335;23;20430;-65
2024/03/06 05:04:41;;;;;;;20.80;10.70;;;4.20;99.90;;;;;;6181846;23;20406;-64
2024/03/06 05:07:10;;;;;;;19.27;11.80;;;4.30;99.90;;;;;;6181701;23;20438;-65
2024/03/06 05:09:37;;;;;;;21.90;12.60;;;4.30;99.90;;;;;;6181882;23;20417;-64
2024/03/06 05:12:05;;;;;;;17.63;11.70;;;4.30;99.90;;;;;;6180573;23;20429;-65
2024/03/06 05:14:33;;;;;;;18.63;9.37;;;4.30;99.90;;;;;;6180593;23;20442;-64
2024/03/06 05:17:00;;;;;;;21.73;11.67;;;4.30;99.90;;;;;;6180977;23;20392;-64
2024/03/06 05:19:31;;;;;;;19.77;13.50;;;4.20;99.90;;;;;;6180331;23;20398;-64
2024/03/06 05:21:59;;;;;;;22.30;11.13;;;4.20;99.90;;;;;;6180317;23;20426;-64
2024/03/06 05:24:25;;;;;;;21.70;10.10;;;4.20;99.90;;;;;;6180400;23;20461;-63
2024/03/06 05:26:52;;;;;;;18.77;11.00;;;4.20;99.90;;;;;;6180857;23;20426;-65
2024/03/06 05:29:19;;;;;;;15.47;9.93;;;4.30;99.90;;;;;;6181119;23;20468;-64
2024/03/06 05:31:48;;;;;;;18.50;12.13;;;4.20;99.90;;;;;;6180705;23;20462;-65
2024/03/06 05:34:15;;;;;;;22.30;11.03;;;4.30;99.90;;;;;;6180964;23;20412;-64
2024/03/06 05:36:42;;;;;;;16.83;10.17;;;4.20;99.90;;;;;;6179794;23;20398;-65
2024/03/06 05:39:12;;;;;;;21.33;11.77;;;4.20;99.90;;;;;;6180640;23;20409;-66
2024/03/06 05:41:39;;;;;;;17.10;11.53;;;4.30;99.90;;;;;;6181040;23;20442;-65
2024/03/06 05:44:06;;;;;;;34.57;12.27;;;4.30;99.90;;;;;;6181261;23;20411;-65
2024/03/06 05:46:33;;;;;;;24.83;10.40;;;4.20;99.90;;;;;;6181049;23;20442;-65
2024/03/06 05:49:03;;;;;;;19.40;10.87;;;4.20;99.90;;;;;;6181868;23;20406;-64
2024/03/06 05:51:31;;;;;;;21.37;12.30;;;4.20;99.90;;;;;;6180218;23;20425;-65
2024/03/06 05:53:58;;;;;;;20.60;11.33;;;4.30;99.90;;;;;;6180224;23;20455;-63
2024/03/06 05:56:24;;;;;;;23.10;12.87;;;4.20;99.90;;;;;;6180827;23;20410;-64
2024/03/06 05:58:55;;;;;;;18.23;10.77;;;4.30;99.90;;;;;;6181316;23;20425;-64
2024/03/06 06:01:22;;;;;;;30.67;13.97;;;4.20;99.90;;;;;;6180958;23;20485;-64
2024/03/06 06:03:50;;;;;;;21.20;10.70;;;4.20;99.90;;;;;;6181082;23;20404;-66
2024/03/06 06:06:19;;;;;;;25.40;12.23;;;4.20;99.90;;;;;;6180904;23;20431;-65
2024/03/06 06:08:46;;;;;;;22.20;12.10;;;4.20;99.90;;;;;;6181343;23;20434;-64
2024/03/06 06:11:13;;;;;;;26.53;11.27;;;4.20;99.90;;;;;;6181249;23;20414;-65
2024/03/06 06:13:40;;;;;;;24.10;13.10;;;4.10;99.90;;;;;;6181390;23;20429;-64
2024/03/06 06:16:11;;;;;;;20.90;12.00;;;4.10;99.90;;;;;;6181364;23;20402;-65
2024/03/06 06:18:42;;;;;;;21.90;11.37;;;4.10;99.90;;;;;;6181105;23;20397;-65
2024/03/06 06:21:10;;;;;;;19.77;12.90;;;4.10;99.90;;;;;;6181139;23;20448;-65
2024/03/06 06:23:38;;;;;;;19.50;11.03;;;4.10;99.90;;;;;;6180940;23;20406;-65
2024/03/06 06:26:06;;;;;;;30.17;13.07;;;4.10;99.90;;;;;;6181072;23;20887;-65
2024/03/06 06:28:32;;;;;;;23.17;12.27;;;4.10;99.90;;;;;;6180812;23;20449;-66
2024/03/06 06:31:00;;;;;;;26.43;11.37;;;4.10;99.90;;;;;;6180038;23;20430;-65
2024/03/06 06:33:27;;;;;;;20.90;12.30;;;4.00;99.90;;;;;;6180653;23;20410;-66
2024/03/06 06:35:54;;;;;;;21.13;12.20;;;4.10;99.90;;;;;;6180928;23;20390;-64
2024/03/06 06:38:21;;;;;;;19.67;12.13;;;4.10;99.90;;;;;;6181234;23;20433;-65
2024/03/06 06:40:50;;;;;;;23.80;12.83;;;4.10;99.90;;;;;;6180780;23;20408;-65
2024/03/06 06:43:17;;;;;;;26.80;14.03;;;4.10;99.90;;;;;;6180609;23;20437;-65
2024/03/06 06:45:44;;;;;;;22.47;12.67;;;4.10;99.90;;;;;;6179864;23;20410;-65
2024/03/06 06:48:11;;;;;;;23.33;12.23;;;4.10;99.90;;;;;;6180245;23;20442;-64
2024/03/06 06:50:39;;;;;;;22.37;12.47;;;4.20;99.90;;;;;;6181295;23;20457;-64
2024/03/06 06:53:06;;;;;;;20.70;11.93;;;4.20;99.90;;;;;;6182359;23;20382;-65
2024/03/06 06:55:36;;;;;;;27.67;12.17;;;4.20;99.90;;;;;;6182385;23;20406;-68
2024/03/06 06:58:04;;;;;;;22.17;13.30;;;4.30;99.90;;;;;;6182142;23;20406;-68
2024/03/06 07:00:32;;;;;;;25.33;14.10;;;4.50;99.90;;;;;;6181085;23;20394;-65
2024/03/06 07:03:00;;;;;;;19.00;13.70;;;4.50;99.90;;;;;;6180757;23;20433;-65
2024/03/06 07:05:27;;;;;;;28.43;14.80;;;4.50;99.90;;;;;;6180435;23;20410;-65
2024/03/06 07:07:55;;;;;;;19.50;11.50;;;4.50;99.90;;;;;;6180769;23;20469;-65
2024/03/06 07:10:23;;;;;;;21.00;12.33;;;4.50;99.90;;;;;;6180631;23;20446;-65
2024/03/06 07:12:50;;;;;;;27.20;13.97;;;4.50;99.90;;;;;;6181108;23;20437;-65
2024/03/06 07:15:19;;;;;;;24.73;12.80;;;4.50;99.90;;;;;;6181666;23;20406;-65
2024/03/06 07:17:46;;;;;;;20.60;12.33;;;4.50;99.90;;;;;;6181454;23;20402;-67
2024/03/06 07:20:14;;;;;;;23.67;12.87;;;4.60;99.90;;;;;;6181033;23;20386;-65
2024/03/06 07:22:42;;;;;;;33.33;13.80;;;5.30;99.90;;;;;;6180909;23;20426;-71
2024/03/06 07:25:09;;;;;;;18.97;12.10;;;5.20;99.90;;;;;;6180695;23;20417;-64
2024/03/06 07:27:39;;;;;;;24.33;13.10;;;5.10;99.90;;;;;;6180234;23;20434;-66
2024/03/06 07:30:08;;;;;;;23.70;12.83;;;5.10;99.90;;;;;;6180638;23;20403;-66
2024/03/06 07:32:36;;;;;;;19.43;11.57;;;5.10;99.90;;;;;;6180454;23;20426;-67
2024/03/06 07:35:03;;;;;;;19.70;12.70;;;5.00;99.90;;;;;;6180774;23;20446;-67
2024/03/06 07:37:30;;;;;;;18.10;11.37;;;5.10;99.90;;;;;;6180604;23;20406;-68
2024/03/06 07:39:58;;;;;;;19.97;10.83;;;5.10;99.90;;;;;;6180419;23;20410;-65
2024/03/06 07:42:25;;;;;;;26.10;11.10;;;5.10;99.90;;;;;;6182055;23;20448;-66
2024/03/06 07:44:54;;;;;;;21.27;11.50;;;5.10;99.90;;;;;;6181826;23;20441;-65
2024/03/06 07:47:22;;;;;;;21.83;10.50;;;5.20;99.90;;;;;;6182414;23;20511;-67
2024/03/06 07:49:51;;;;;;;23.60;12.10;;;5.20;99.90;;;;;;6182540;23;20388;-66
2024/03/06 07:55:05;;;;;;;14.67;9.53;;;5.30;99.90;;;;;;6160856;23;20418;-58
2024/03/06 07:57:32;;;;;;;21.23;10.80;;;5.40;99.90;;;;;;6161026;23;20430;-59
2024/03/06 07:59:59;;;;;;;22.80;14.47;;;5.40;99.90;;;;;;6160828;23;20405;-61
2024/03/06 08:02:25;;;;;;;21.33;10.93;;;5.50;99.90;;;;;;6159891;23;20761;-59
2024/03/06 08:04:54;;;;;;;20.43;11.13;;;5.50;99.90;;;;;;6160331;23;20410;-59
2024/03/06 08:07:21;;;;;;;16.40;10.20;;;5.60;99.90;;;;;;6161444;23;20470;-60
2024/03/06 08:09:48;;;;;;;21.23;9.90;;;5.60;99.90;;;;;;6160876;23;20876;-59
2024/03/06 08:12:15;;;;;;;15.77;10.17;;;5.70;99.90;;;;;;6159629;23;20422;-57
2024/03/06 08:14:42;;;;;;;17.53;10.23;;;5.70;99.90;;;;;;6161012;23;20485;-59
2024/03/06 08:17:09;;;;;;;16.40;11.07;;;5.80;99.90;;;;;;6160191;23;20402;-59
2024/03/06 08:19:36;;;;;;;22.40;11.77;;;5.90;99.90;;;;;;6159260;23;20433;-60
2024/03/06 08:22:05;;;;;;;15.53;10.40;;;5.90;99.90;;;;;;6158640;23;20484;-58
2024/03/06 08:24:32;;;;;;;21.23;10.60;;;6.00;99.90;;;;;;6159789;23;20426;-58
2024/03/06 08:26:59;;;;;;;18.33;11.17;;;6.00;99.90;;;;;;6160333;23;20413;-60
2024/03/06 08:29:27;;;;;;;17.80;10.17;;;6.10;99.90;;;;;;6161051;23;20482;-58
2024/03/06 08:31:57;;;;;;;16.27;10.20;;;6.20;99.90;;;;;;6161148;23;20943;-60
2024/03/06 08:34:24;;;;;;;19.00;10.03;;;6.20;99.90;;;;;;6160712;23;20410;-61
2024/03/06 08:36:51;;;;;;;17.73;10.50;;;6.20;99.90;;;;;;6160217;23;20422;-59
2024/03/06 08:39:22;;;;;;;18.40;10.13;;;6.30;99.90;;;;;;6160210;23;20402;-57
2024/03/06 08:41:49;;;;;;;13.33;9.37;;;6.40;99.90;;;;;;6159520;23;20434;-58
2024/03/06 08:44:16;;;;;;;17.83;9.30;;;6.50;99.90;;;;;;6160349;23;20741;-60
2024/03/06 08:46:43;;;;;;;17.10;10.33;;;6.50;99.90;;;;;;6160156;23;20434;-58
2024/03/06 08:49:10;;;;;;;19.97;11.37;;;6.50;99.90;;;;;;6159759;23;20974;-59
2024/03/06 08:51:40;;;;;;;12.47;10.10;;;6.60;99.90;;;;;;6159279;23;20426;-60
2024/03/06 08:54:10;;;;;;;16.90;10.30;;;6.60;99.90;;;;;;6159615;23;20421;-60
2024/03/06 08:56:38;;;;;;;18.23;9.90;;;6.70;99.90;;;;;;6159903;23;20724;-61
2024/03/06 08:59:05;;;;;;;12.00;7.33;;;7.00;99.90;;;;;;6160119;23;20756;-59
2024/03/06 09:01:33;;;;;;;16.00;8.60;;;8.10;99.90;;;;;;6160640;23;20402;-59
2024/03/06 09:04:00;;;;;;;12.63;7.47;;;9.50;99.90;;;;;;6161742;23;20925;-62
2024/03/06 09:06:28;;;;;;;14.80;7.00;;;11.00;99.90;;;;;;6163524;23;20410;-62
2024/03/06 09:08:55;;;;;;;10.90;7.97;;;12.60;99.90;;;;;;6163805;23;20497;-60
2024/03/06 09:11:26;;;;;;;15.43;9.27;;;14.00;99.90;;;;;;6163794;23;20465;-61
2024/03/06 09:13:55;;;;;;;11.43;8.43;;;15.40;99.90;;;;;;6164420;23;20418;-63
2024/03/06 09:16:22;;;;;;;8.67;7.10;;;16.30;97.00;;;;;;6162886;23;20402;-62
2024/03/06 09:18:49;;;;;;;9.00;6.53;;;16.80;93.90;;;;;;6163204;23;20398;-61
2024/03/06 09:21:16;;;;;;;14.10;7.53;;;17.30;90.60;;;;;;6162822;23;20406;-61
2024/03/06 09:23:43;;;;;;;14.20;7.47;;;17.90;86.80;;;;;;6164261;23;20407;-60
2024/03/06 09:26:10;;;;;;;9.33;7.03;;;18.20;82.70;;;;;;6165318;23;20402;-60
2024/03/06 09:28:37;;;;;;;9.23;7.30;;;18.60;78.70;;;;;;6162276;23;20438;-59
2024/03/06 09:31:05;;;;;;;9.43;7.80;;;18.80;75.20;;;;;;6160440;23;20472;-59
2024/03/06 09:36:51;;;;;;;11.13;8.10;;;17.40;75.00;;;;;;6055929;23;20408;-59
2024/03/06 09:39:22;;;;;;;10.53;8.07;;;15.90;78.30;;;;;;6182541;23;20402;-60
2024/03/06 09:41:50;;;;;;;12.97;8.23;;;14.90;81.90;;;;;;6183103;23;20490;-57
2024/03/06 09:44:17;;;;;;;9.20;7.03;;;14.10;86.20;;;;;;6159284;23;20465;-61
2024/03/06 09:46:50;;;;;;;10.77;8.47;;;13.30;89.60;;;;;;6159978;23;20482;-61
2024/03/06 09:49:18;;;;;;;9.60;7.07;;;12.80;92.10;;;;;;6159630;23;20422;-60
2024/03/06 09:51:49;;;;;;;10.77;7.40;;;12.80;93.70;;;;;;6159577;23;20490;-59
2024/03/06 09:54:16;;;;;;;7.80;6.33;;;13.00;94.80;;;;;;6160709;23;20399;-60
2024/03/06 09:56:44;;;;;;;9.23;6.80;;;12.80;93.90;;;;;;6160142;23;20402;-60
2024/03/06 09:59:12;;;;;;;7.87;5.63;;;12.70;95.20;;;;;;6160641;23;20414;-59
2024/03/06 10:01:41;;;;;;;8.30;5.80;;;13.50;94.60;;;;;;6159493;23;20430;-61
2024/03/06 10:04:24;;;;;;;14.80;6.70;;;14.10;92.90;;;;;;6159679;23;20412;-58
2024/03/06 10:06:54;;;;;;;8.97;5.87;;;15.20;91.60;;;;;;6160561;23;20378;-59
2024/03/06 10:09:22;;;;;;;9.70;6.33;;;16.20;89.70;;;;;;6161487;23;20442;-57
2024/03/06 10:11:53;;;;;;;8.37;7.43;;;16.90;84.10;;;;;;6161821;23;20430;-59
2024/03/06 10:14:21;;;;;;;10.03;6.20;;;17.60;80.00;;;;;;6164302;23;20419;-62
2024/03/06 10:17:00;;;;;;;9.97;6.80;;;18.00;77.80;;;;;;6161279;23;20409;-62
2024/03/06 10:19:31;;;;;;;9.33;6.70;;;18.40;75.20;;;;;;6158427;23;20410;-59
2024/03/06 10:21:58;;;;;;;7.10;6.37;;;18.60;73.00;;;;;;6159675;23;20434;-61
2024/03/06 10:24:27;;;;;;;8.60;6.30;;;18.90;71.30;;;;;;6160643;23;20405;-60
2024/03/06 10:26:58;;;;;;;8.50;7.00;;;18.80;69.40;;;;;;6160089;23;20402;-60
2024/03/06 10:29:26;;;;;;;9.60;7.23;;;18.30;69.90;;;;;;6159554;23;20492;-62
2024/03/06 10:31:55;;;;;;;8.70;6.10;;;17.80;70.80;;;;;;6159338;23;20460;-59
2024/03/06 10:34:23;;;;;;;7.93;6.73;;;17.70;71.00;;;;;;6160088;23;20465;-61
2024/03/06 10:36:58;;;;;;;10.00;6.73;;;17.70;70.20;;;;;;6160540;23;20378;-58
2024/03/06 10:39:26;;;;;;;9.90;6.23;;;17.60;71.00;;;;;;6159748;23;20383;-58
2024/03/06 10:44:29;;;;;;;11.03;6.47;;;15.70;73.40;;;;;;6151645;23;20464;-67
2024/03/06 10:47:00;;;;;;;11.00;6.87;;;14.60;76.40;;;;;;6154652;23;20420;-69
2024/03/06 10:49:29;;;;;;;9.10;6.17;;;13.70;79.70;;;;;;6154642;23;20526;-67
2024/03/06 10:51:59;;;;;;;10.50;6.07;;;13.10;83.20;;;;;;6146340;23;20438;-67
2024/03/06 10:54:29;;;;;;;8.87;6.23;;;12.60;86.60;;;;;;6126248;23;20742;-67
2024/03/06 10:56:57;;;;;;;8.37;6.07;;;12.30;90.10;;;;;;6124670;23;20877;-68
2024/03/06 10:59:28;;;;;;;7.13;5.33;;;12.10;90.90;;;;;;6125341;23;20901;-67
2024/03/06 11:02:08;;;;;;;9.37;5.87;;;12.00;92.30;;;;;;6126399;23;20798;-69
2024/03/06 11:04:35;;;;;;;8.87;6.00;;;12.40;92.90;;;;;;6125125;23;20512;-67
2024/03/06 11:07:05;;;;;;;6.57;5.60;;;13.10;92.10;;;;;;6125160;23;20437;-67
2024/03/06 11:09:35;;;;;;;8.20;6.50;;;13.70;90.30;;;;;;6125027;23;20498;-67
2024/03/06 11:12:03;;;;;;;7.77;5.57;;;14.20;88.60;;;;;;6124627;23;20971;-66
2024/03/06 11:14:32;;;;;;;10.47;5.80;;;14.50;85.50;;;;;;6124658;23;20901;-67
2024/03/06 11:17:01;;;;;;;7.30;5.97;;;14.10;83.10;;;;;;6126371;23;20897;-67
2024/03/06 11:19:29;;;;;;;8.93;6.67;;;13.70;86.50;;;;;;6126743;23;20433;-66
2024/03/06 11:21:56;;;;;;;12.03;7.83;;;13.20;89.00;;;;;;6126102;23;20506;-68
2024/03/06 11:24:32;;;;;;;10.57;6.23;;;12.60;90.40;;;;;;6126539;23;20547;-67
2024/03/06 11:27:05;;;;;;;12.90;6.87;;;12.10;91.90;;;;;;6126308;23;20831;-67
2024/03/06 11:30:10;;;;;;;8.83;6.97;;;11.60;92.50;;;;;;6126924;23;20431;-68
2024/03/06 11:32:38;;;;;;;11.63;6.83;;;11.30;93.80;;;;;;6126423;23;20427;-67
2024/03/06 11:35:06;;;;;;;8.90;6.20;;;11.20;95.10;;;;;;6127249;23;20410;-68
2024/03/06 11:37:36;;;;;;;6.80;5.53;;;11.30;95.30;;;;;;6126913;23;20903;-67
2024/03/06 11:40:08;;;;;;;10.67;5.27;;;11.40;95.10;;;;;;6126846;23;20395;-68
2024/03/06 11:42:36;;;;;;;10.70;5.87;;;11.50;94.30;;;;;;6126248;23;20419;-66
2024/03/06 11:45:16;;;;;;;8.70;5.47;;;11.70;94.10;;;;;;6126612;23;20407;-68
2024/03/06 11:47:57;;;;;;;7.50;5.60;;;11.70;93.90;;;;;;6127303;23;20401;-68
2024/03/06 11:50:27;;;;;;;13.90;6.70;;;11.70;93.80;;;;;;6127496;23;20383;-67
2024/03/06 11:52:55;;;;;;;13.37;6.93;;;11.80;94.00;;;;;;6127601;23;20460;-67
2024/03/06 11:55:25;;;;;;;13.20;9.00;;;11.90;94.10;;;;;;6129230;23;20435;-67
2024/03/06 11:57:53;;;;;;;12.40;8.20;;;11.90;94.30;;;;;;6129370;23;20435;-67
2024/03/06 12:00:22;;;;;;;9.93;7.17;;;11.70;94.40;;;;;;6130676;23;20498;-66
2024/03/06 12:02:50;;;;;;;13.30;7.80;;;11.50;94.40;;;;;;6129275;23;20439;-67
2024/03/06 12:05:18;;;;;;;9.37;5.67;;;11.20;95.20;;;;;;6132573;23;20479;-67
2024/03/06 12:07:48;;;;;;;10.63;6.57;;;11.10;94.80;;;;;;6131642;23;20893;-67
2024/03/06 12:10:15;;;;;;;10.63;7.40;;;11.20;94.00;;;;;;6135167;23;20933;-68
2024/03/06 12:12:44;;;;;;;10.10;6.73;;;11.30;93.90;;;;;;6136645;23;20431;-69
2024/03/06 12:15:12;;;;;;;10.13;7.07;;;11.30;93.60;;;;;;6133582;23;20813;-67
2024/03/06 12:17:46;;;;;;;14.77;9.30;;;11.20;93.80;;;;;;6127282;23;20406;-67
2024/03/06 12:20:14;;;;;;;19.70;10.17;;;11.10;93.80;;;;;;6127422;23;20388;-67
2024/03/06 12:22:45;;;;;;;17.63;10.97;;;11.10;94.30;;;;;;6126155;23;20435;-68
2024/03/06 12:25:19;;;;;;;19.17;11.63;;;11.10;95.50;;;;;;6126752;23;20448;-67
2024/03/06 12:27:48;;;;;;;18.63;11.20;;;11.00;96.10;;;;;;6125984;23;20919;-66
2024/03/06 12:30:18;;;;;;;16.60;11.70;;;11.10;96.40;;;;;;6126137;23;20517;-68
2024/03/06 12:32:45;;;;;;;15.77;11.20;;;11.10;96.30;;;;;;6125974;23;20917;-67
2024/03/06 12:35:12;;;;;;;23.17;10.53;;;11.30;96.70;;;;;;6126267;23;20476;-69
2024/03/06 12:37:39;;;;;;;15.00;10.67;;;11.40;96.30;;;;;;6125896;23;20901;-68
2024/03/06 12:40:13;;;;;;;16.30;10.27;;;11.50;95.70;;;;;;6125997;23;20912;-68
2024/03/06 12:42:40;;;;;;;13.70;9.47;;;11.70;95.20;;;;;;6125999;23;20779;-68
2024/03/06 12:45:11;;;;;;;16.37;10.20;;;11.80;94.20;;;;;;6125668;23;20426;-68
2024/03/06 12:47:39;;;;;;;15.47;9.77;;;11.70;94.30;;;;;;6126117;23;20479;-68
2024/03/06 12:50:07;;;;;;;13.67;9.43;;;11.70;94.40;;;;;;6125988;23;20497;-68
2024/03/06 12:52:35;;;;;;;12.50;8.20;;;11.50;94.50;;;;;;6125407;23;20415;-68